< < Back
Terminal Aerodrome Forecast


Current Version              Previous Versions:   1  2  3  4  5  6  7  8  9  

Terminal Aerodrome Forecast

719
FTUS42 KTAE 201100
TAFDHN
TAF
KDHN 201131Z 2012/2112 29007KT P6SM BKN040=



Latest METAR

555
SAUS70 KWBC 201200 RRG
MTRDHN
METAR KDHN 201153Z 27003KT 10SM CLR 23/21 A3009 RMK AO2 SLP185 70003
T02280206 10233 20222 53023


USA.gov is the U.S. government's official web portal to all federal, state and local government web resources and services.